Terminal Aerodrome Forecast
Issued by NWS

Home | Current Version | Previous Version | Text Only | Print | Product List | Glossary On
Versions: 1 2 3 4 5 6 7 8 9 10 11 12
000
FTUS45 KLKN 201720
TAFWMC
TAF
KWMC 201720Z 2018/2118 19008KT P6SM -SHRA OVC050
     FM202100 20012KT P6SM VCSH SCT050 OVC060
     FM210700 19005KT P6SM VCSH OVC060
     FM211200 18006KT P6SM BKN080=

USA.gov is the U.S. government's official web portal to all federal, state and local government web resources and services.